Charles Darwin — GDLS — position and weather

sailwx.info

Track history (hours):
 
Tides and Currents Weather Stations Pressure Air Temp Water Temp Dewpoint Dewpoint Depression Visibility Wind Speed Wind Dir Waves Ship Positions

Oceanographic research ship Charles Darwin (UK)

Detailed information on ship capabilities available from University of Delaware's Ocean Information Center.

Last reported at 2017-Nov-03 11:41 UTC. Time now 2017-Dec-13 12:59 UTC.
Position N 41°04' W 070°44'.
Warning: this ship's position is 40 days out of date.

Length 70 m; draft 5.6 m.

Type: Cargo ship. MMSI: 235011460.

Date/timePositionNaut miles runAvg speedWind from/ knotsBaromVisibWave heightAir tempDewpointWater temp
2017-Nov-03 11:41N 41°04' W 070°44'5 2.9
2017-Nov-03 10:05N 41°07' W 070°40'0 1.7
2017-Nov-03 10:01N 41°07' W 070°40'2 3.0
2017-Nov-03 09:30N 41°06' W 070°41'1 2.9
2017-Nov-03 09:00N 41°05' W 070°43'1 1.5
2017-Nov-03 08:29N 41°04' W 070°44'2 2.9
2017-Nov-03 07:55N 41°06' W 070°42'1 2.7
2017-Nov-03 07:30N 41°07' W 070°41'1 2.7
2017-Nov-03 07:00N 41°07' W 070°40'1 2.5
2017-Nov-03 06:30N 41°06' W 070°41'1 2.7
2017-Nov-03 06:00N 41°05' W 070°42'1 2.6
2017-Nov-03 05:30N 41°05' W 070°44'2 2.4
2017-Nov-03 04:30N 41°06' W 070°41'1 2.8
2017-Nov-03 04:00N 41°05' W 070°42'0 0.6
2017-Nov-03 03:15N 41°05' W 070°42'0 0.2
2017-Nov-03 02:21N 41°05' W 070°42'1 3.5
2017-Nov-03 02:00N 41°05' W 070°43'0 0.9
2017-Nov-03 01:28N 41°05' W 070°43'6 0.3
2017-Nov-02 05:30N 41°04' W 070°35'3 3.4
2017-Nov-02 04:36N 41°06' W 070°38'0 3.4
2017-Nov-02 04:30N 41°06' W 070°39'  
2017-Oct-29 14:01N 41°26' W 071°02'0 7.0
2017-Oct-29 13:57N 41°25' W 071°03'6 6.9
2017-Oct-29 13:05N 41°24' W 071°11'6 7.0
2017-Oct-29 12:12N 41°24' W 071°19'2 6.8
2017-Oct-29 11:55N 41°23' W 071°22'  
Track history (hours):
 
Tides and Currents Weather Stations Pressure Air Temp Water Temp Dewpoint Dewpoint Depression Visibility Wind Speed Wind Dir Waves Ship Positions

Oceanographic research ship Charles Darwin (UK)

Detailed information on ship capabilities available from University of Delaware's Ocean Information Center.

Last reported at 2017-Nov-03 11:41 UTC. Time now 2017-Dec-13 12:59 UTC.
Position N 41°04' W 070°44'.
Warning: this ship's position is 40 days out of date.

Length 70 m; draft 5.6 m.

Type: Cargo ship. MMSI: 235011460.

Date/timePositionNaut miles runAvg speedWind from/ knotsBaromVisibWave heightAir tempDewpointWater temp
2017-Nov-03 11:41N 41°04' W 070°44'5 2.9
2017-Nov-03 10:05N 41°07' W 070°40'0 1.7
2017-Nov-03 10:01N 41°07' W 070°40'2 3.0
2017-Nov-03 09:30N 41°06' W 070°41'1 2.9
2017-Nov-03 09:00N 41°05' W 070°43'1 1.5
2017-Nov-03 08:29N 41°04' W 070°44'2 2.9
2017-Nov-03 07:55N 41°06' W 070°42'1 2.7
2017-Nov-03 07:30N 41°07' W 070°41'1 2.7
2017-Nov-03 07:00N 41°07' W 070°40'1 2.5
2017-Nov-03 06:30N 41°06' W 070°41'1 2.7
2017-Nov-03 06:00N 41°05' W 070°42'1 2.6
2017-Nov-03 05:30N 41°05' W 070°44'2 2.4
2017-Nov-03 04:30N 41°06' W 070°41'1 2.8
2017-Nov-03 04:00N 41°05' W 070°42'0 0.6
2017-Nov-03 03:15N 41°05' W 070°42'0 0.2
2017-Nov-03 02:21N 41°05' W 070°42'1 3.5
2017-Nov-03 02:00N 41°05' W 070°43'0 0.9
2017-Nov-03 01:28N 41°05' W 070°43'6 0.3
2017-Nov-02 05:30N 41°04' W 070°35'3 3.4
2017-Nov-02 04:36N 41°06' W 070°38'0 3.4
2017-Nov-02 04:30N 41°06' W 070°39'  
2017-Oct-29 14:01N 41°26' W 071°02'0 7.0
2017-Oct-29 13:57N 41°25' W 071°03'6 6.9
2017-Oct-29 13:05N 41°24' W 071°11'6 7.0
2017-Oct-29 12:12N 41°24' W 071°19'2 6.8
2017-Oct-29 11:55N 41°23' W 071°22'  

Dump ship's entire track history